createdAt,value
2019-05-22T00:01:30.339Z,24.00
2019-05-22T00:04:00.806Z,24.20
2019-05-22T00:06:34.076Z,23.97
2019-05-22T00:09:05.078Z,25.27
2019-05-22T00:11:34.161Z,24.80
2019-05-22T00:14:02.418Z,23.80
2019-05-22T00:16:31.129Z,24.57
2019-05-22T00:18:58.865Z,23.73
2019-05-22T00:21:28.137Z,23.97
2019-05-22T00:23:55.635Z,24.60
2019-05-22T00:26:25.949Z,24.50
2019-05-22T00:28:53.766Z,24.57
2019-05-22T00:31:22.933Z,21.50
2019-05-22T00:33:51.451Z,23.23
2019-05-22T00:36:20.321Z,24.70
2019-05-22T00:38:49.509Z,24.00
2019-05-22T00:41:20.158Z,23.50
2019-05-22T00:43:51.101Z,23.73
2019-05-22T00:46:20.072Z,23.83
2019-05-22T00:48:47.693Z,22.90
2019-05-22T00:51:33.521Z,24.50
2019-05-22T00:54:21.267Z,23.80
2019-05-22T00:57:11.386Z,23.10
2019-05-22T00:59:40.769Z,24.83
2019-05-22T01:02:09.593Z,23.53
2019-05-22T01:04:40.173Z,23.57
2019-05-22T01:07:15.763Z,24.83
2019-05-22T01:09:43.882Z,24.13
2019-05-22T01:12:19.062Z,24.00
2019-05-22T01:14:48.997Z,24.23
2019-05-22T01:17:19.196Z,23.27
2019-05-22T01:19:48.505Z,24.90
2019-05-22T01:22:18.125Z,24.60
2019-05-22T01:24:50.509Z,24.03
2019-05-22T01:27:20.437Z,25.00
2019-05-22T01:29:49.601Z,23.90
2019-05-22T01:32:24.033Z,24.00
2019-05-22T01:34:52.033Z,24.43
2019-05-22T01:37:19.673Z,25.07
2019-05-22T01:40:01.729Z,22.60
2019-05-22T01:42:38.733Z,24.60
2019-05-22T01:45:08.630Z,22.13
2019-05-22T01:47:46.410Z,23.90
2019-05-22T01:50:40.544Z,21.63
2019-05-22T01:53:08.442Z,22.47
2019-05-22T01:55:37.817Z,22.70
2019-05-22T01:58:05.510Z,22.90
2019-05-22T02:00:34.159Z,21.20
2019-05-22T02:03:02.574Z,21.37
2019-05-22T02:05:30.817Z,24.00
2019-05-22T02:07:58.598Z,21.73
2019-05-22T02:10:31.518Z,23.10
2019-05-22T02:13:02.946Z,21.83
2019-05-22T02:15:30.538Z,22.27
2019-05-22T02:17:59.979Z,21.00
2019-05-22T02:20:28.052Z,23.20
2019-05-22T02:22:57.129Z,21.73
2019-05-22T02:25:24.738Z,22.17
2019-05-22T02:27:53.159Z,21.53
2019-05-22T02:30:24.183Z,22.20
2019-05-22T02:32:52.223Z,21.87
2019-05-22T02:35:21.247Z,21.77
2019-05-22T02:37:50.179Z,22.60
2019-05-22T02:40:23.395Z,22.90
2019-05-22T02:42:51.805Z,21.63
2019-05-22T02:45:20.319Z,22.77
2019-05-22T02:47:49.920Z,21.43
2019-05-22T02:50:17.864Z,24.13
2019-05-22T02:52:45.903Z,23.70
2019-05-22T02:55:14.033Z,21.80
2019-05-22T02:57:42.330Z,21.53
2019-05-22T03:00:12.727Z,22.50
2019-05-22T03:02:47.206Z,25.33
2019-05-22T03:05:14.844Z,25.20
2019-05-22T03:07:43.079Z,23.90
2019-05-22T03:10:12.999Z,24.90
2019-05-22T03:12:42.366Z,23.50
2019-05-22T03:15:14.414Z,24.30
2019-05-22T03:17:43.072Z,22.10
2019-05-22T03:20:12.846Z,23.40
2019-05-22T03:22:51.271Z,22.80
2019-05-22T03:25:19.536Z,23.47
2019-05-22T03:27:48.869Z,23.47
2019-05-22T03:30:27.352Z,23.83
2019-05-22T03:32:56.344Z,22.17
2019-05-22T03:35:25.778Z,22.90
2019-05-22T03:37:53.633Z,23.80
2019-05-22T03:40:21.898Z,23.00
2019-05-22T03:42:50.971Z,24.67
2019-05-22T03:45:18.629Z,25.37
2019-05-22T03:47:46.295Z,24.13
2019-05-22T03:50:14.963Z,23.30
2019-05-22T03:52:42.399Z,24.97
2019-05-22T03:55:11.425Z,26.30
2019-05-22T03:57:39.024Z,24.20
2019-05-22T04:00:12.556Z,24.27
2019-05-22T04:02:41.016Z,24.23
2019-05-22T04:05:09.496Z,23.73
2019-05-22T04:07:38.873Z,25.43
2019-05-22T04:10:09.914Z,25.03
2019-05-22T04:12:37.489Z,25.90
2019-05-22T04:15:07.424Z,25.00
2019-05-22T04:17:35.725Z,24.57
2019-05-22T04:20:07.249Z,24.47
2019-05-22T04:22:34.745Z,22.93
2019-05-22T04:25:04.131Z,22.60
2019-05-22T04:27:32.875Z,24.50
2019-05-22T04:30:01.197Z,24.80
2019-05-22T04:32:32.748Z,24.27
2019-05-22T04:35:02.042Z,25.37
2019-05-22T04:37:30.571Z,25.57
2019-05-22T04:40:44.642Z,24.27
2019-05-22T04:43:13.411Z,23.53
2019-05-22T04:45:41.649Z,24.27
2019-05-22T04:48:09.598Z,22.50
2019-05-22T04:50:37.486Z,25.10
2019-05-22T04:53:05.194Z,24.10
2019-05-22T04:55:33.750Z,24.87
2019-05-22T04:58:03.783Z,21.93
2019-05-22T05:00:32.207Z,24.40
2019-05-22T05:03:00.316Z,23.10
2019-05-22T05:05:31.761Z,25.63
2019-05-22T05:08:00.141Z,23.77
2019-05-22T05:10:28.371Z,23.93
2019-05-22T05:12:57.850Z,23.00
2019-05-22T05:15:25.751Z,23.47
2019-05-22T05:17:53.559Z,23.47
2019-05-22T05:20:22.761Z,24.80
2019-05-22T05:22:50.992Z,23.00
2019-05-22T05:25:19.570Z,22.60
2019-05-22T05:27:47.709Z,25.03
2019-05-22T05:30:16.935Z,21.73
2019-05-22T05:32:44.986Z,23.83
2019-05-22T05:35:13.404Z,24.83
2019-05-22T05:37:41.350Z,24.50
2019-05-22T05:40:39.924Z,24.27
2019-05-22T05:43:09.346Z,24.13
2019-05-22T05:45:38.388Z,26.10
2019-05-22T05:48:07.029Z,23.90
2019-05-22T05:50:40.078Z,23.47
2019-05-22T05:53:08.329Z,24.83
2019-05-22T05:56:13.246Z,24.37
2019-05-22T05:58:41.346Z,23.23
2019-05-22T06:01:26.678Z,23.53
2019-05-22T06:03:55.255Z,24.30
2019-05-22T06:07:09.040Z,23.93
2019-05-22T06:09:37.598Z,25.40
2019-05-22T06:12:05.909Z,26.50
2019-05-22T06:14:34.976Z,22.70
2019-05-22T06:17:56.964Z,24.30
2019-05-22T06:20:26.805Z,22.90
2019-05-22T06:23:44.197Z,23.37
2019-05-22T06:26:37.857Z,23.40
2019-05-22T06:29:07.327Z,21.90
2019-05-22T06:31:43.958Z,21.87
2019-05-22T06:34:11.754Z,21.80
2019-05-22T06:36:38.889Z,20.33
2019-05-22T06:39:11.882Z,21.50
2019-05-22T06:41:40.870Z,22.73
2019-05-22T06:44:37.446Z,21.80
2019-05-22T06:47:19.473Z,21.07
2019-05-22T06:49:52.495Z,19.60
2019-05-22T06:52:19.719Z,19.87
2019-05-22T06:54:47.818Z,21.07
2019-05-22T06:57:17.472Z,19.03
2019-05-22T06:59:46.136Z,21.50
2019-05-22T07:02:16.622Z,20.77
2019-05-22T07:04:44.384Z,19.07
2019-05-22T07:07:13.308Z,18.33
2019-05-22T07:09:42.927Z,20.13
2019-05-22T07:12:12.490Z,19.07
2019-05-22T07:14:54.364Z,19.87
2019-05-22T07:17:23.087Z,20.27
2019-05-22T07:19:51.440Z,18.70
2019-05-22T07:22:19.545Z,19.67
2019-05-22T07:24:48.467Z,18.80
2019-05-22T07:27:23.535Z,18.90
2019-05-22T07:29:51.185Z,19.07
2019-05-22T07:32:18.736Z,18.30
2019-05-22T07:34:46.452Z,18.93
2019-05-22T07:37:14.632Z,19.03
2019-05-22T07:39:42.305Z,18.20
2019-05-22T07:42:10.045Z,18.73
2019-05-22T07:44:37.971Z,19.90
2019-05-22T07:47:05.959Z,17.83
2019-05-22T07:49:33.555Z,17.07
2019-05-22T07:52:01.996Z,16.60
2019-05-22T07:54:29.742Z,16.30
2019-05-22T07:56:58.721Z,16.70
2019-05-22T07:59:26.971Z,16.20
2019-05-22T08:01:54.460Z,15.50
2019-05-22T08:04:23.295Z,15.63
2019-05-22T08:06:51.645Z,15.03
2019-05-22T08:09:19.546Z,14.80
2019-05-22T08:11:47.250Z,14.60
2019-05-22T08:14:16.811Z,13.77
2019-05-22T08:16:45.028Z,13.73
2019-05-22T08:19:12.712Z,13.73
2019-05-22T08:21:40.453Z,14.07
2019-05-22T08:24:08.586Z,13.73
2019-05-22T08:26:53.257Z,13.57
2019-05-22T08:29:07.532Z,13.67
2019-05-22T08:31:36.123Z,14.43
2019-05-22T08:34:04.919Z,13.43
2019-05-22T08:36:33.946Z,14.27
2019-05-22T08:39:03.342Z,13.30
2019-05-22T08:41:35.942Z,12.43
2019-05-22T08:44:15.976Z,12.20
2019-05-22T08:46:35.160Z,11.93
2019-05-22T08:49:02.788Z,12.80
2019-05-22T08:51:30.236Z,11.37
2019-05-22T08:53:59.072Z,11.50
2019-05-22T08:56:28.705Z,11.90
2019-05-22T08:58:57.623Z,12.70
2019-05-22T09:01:26.367Z,11.20
2019-05-22T09:03:55.349Z,11.97
2019-05-22T09:06:23.208Z,11.23
2019-05-22T09:08:50.811Z,11.77
2019-05-22T09:11:18.676Z,11.13
2019-05-22T09:13:46.644Z,12.03
2019-05-22T09:16:14.400Z,11.63
2019-05-22T09:18:42.716Z,13.60
2019-05-22T09:21:11.319Z,11.73
2019-05-22T09:23:40.163Z,11.53
2019-05-22T09:26:08.632Z,12.30
2019-05-22T09:28:36.276Z,12.13
2019-05-22T09:31:04.199Z,13.43
2019-05-22T09:33:33.979Z,12.97
2019-05-22T09:36:01.744Z,12.10
2019-05-22T09:38:29.862Z,13.07
2019-05-22T09:40:59.005Z,14.27
2019-05-22T09:43:26.702Z,12.57
2019-05-22T09:45:54.441Z,12.70
2019-05-22T09:48:22.229Z,12.73
2019-05-22T09:50:50.086Z,11.87
2019-05-22T09:53:18.411Z,12.33
2019-05-22T09:55:47.718Z,11.20
2019-05-22T09:58:15.574Z,11.80
2019-05-22T10:00:43.166Z,10.77
2019-05-22T10:03:10.735Z,12.87
2019-05-22T10:05:38.232Z,10.50
2019-05-22T10:08:06.312Z,10.13
2019-05-22T10:10:34.611Z,9.80
2019-05-22T10:13:02.042Z,10.83
2019-05-22T10:15:30.290Z,9.90
2019-05-22T10:17:58.095Z,9.27
2019-05-22T10:20:26.330Z,7.73
2019-05-22T10:22:55.041Z,9.17
2019-05-22T10:25:22.731Z,8.47
2019-05-22T10:27:50.778Z,8.87
2019-05-22T10:30:20.465Z,9.53
2019-05-22T10:32:48.790Z,8.50
2019-05-22T10:35:19.350Z,9.37
2019-05-22T10:37:46.727Z,8.70
2019-05-22T10:40:15.028Z,9.83
2019-05-22T10:42:44.833Z,9.93
2019-05-22T10:45:12.726Z,9.83
2019-05-22T10:47:40.522Z,8.80
2019-05-22T10:50:08.362Z,8.60
2019-05-22T10:52:36.569Z,7.40
2019-05-22T10:55:05.825Z,9.63
2019-05-22T10:57:33.759Z,7.33
2019-05-22T11:00:01.837Z,7.93
2019-05-22T11:02:31.355Z,8.90
2019-05-22T11:04:59.398Z,7.73
2019-05-22T11:07:29.170Z,8.40
2019-05-22T11:09:56.983Z,8.17
2019-05-22T11:12:24.749Z,8.13
2019-05-22T11:14:52.482Z,8.47
2019-05-22T11:17:20.298Z,8.27
2019-05-22T11:19:48.029Z,7.73
2019-05-22T11:22:17.080Z,7.97
2019-05-22T11:24:45.006Z,8.40
2019-05-22T11:27:13.069Z,7.60
2019-05-22T11:29:41.934Z,7.33
2019-05-22T11:32:10.807Z,7.30
2019-05-22T11:34:39.651Z,8.57
2019-05-22T11:37:07.667Z,8.00
2019-05-22T11:39:39.817Z,8.97
2019-05-22T11:42:08.467Z,7.97
2019-05-22T11:44:36.305Z,6.90
2019-05-22T11:47:03.934Z,7.43
2019-05-22T11:49:32.050Z,7.63
2019-05-22T11:51:59.772Z,7.13
2019-05-22T11:54:28.133Z,5.90
2019-05-22T11:56:55.711Z,7.30
2019-05-22T11:59:23.830Z,6.10
2019-05-22T12:01:53.022Z,6.53
2019-05-22T12:04:20.815Z,6.47
2019-05-22T12:06:49.017Z,7.20
2019-05-22T12:09:18.861Z,6.80
2019-05-22T12:11:47.105Z,8.77
2019-05-22T12:14:15.143Z,7.80
2019-05-22T12:16:43.611Z,7.17
2019-05-22T12:19:11.834Z,7.00
2019-05-22T12:21:39.424Z,6.90
2019-05-22T12:24:07.337Z,7.10
2019-05-22T12:26:35.863Z,6.43
2019-05-22T12:29:03.543Z,7.83
2019-05-22T12:31:32.788Z,6.60
2019-05-22T12:34:00.847Z,7.00
2019-05-22T12:36:29.962Z,7.03
2019-05-22T12:38:58.518Z,7.40
2019-05-22T12:41:27.453Z,9.07
2019-05-22T12:43:55.549Z,8.80
2019-05-22T12:46:23.511Z,8.83
2019-05-22T12:48:52.329Z,8.70
2019-05-22T12:51:20.859Z,8.30
2019-05-22T12:53:48.477Z,8.00
2019-05-22T12:56:16.705Z,8.40
2019-05-22T12:58:46.030Z,7.63
2019-05-22T13:01:14.323Z,8.00
2019-05-22T13:03:42.390Z,7.47
2019-05-22T13:06:11.003Z,7.60
2019-05-22T13:08:39.863Z,7.03
2019-05-22T13:11:09.581Z,7.17
2019-05-22T13:13:37.314Z,8.27
2019-05-22T13:16:05.113Z,8.00
2019-05-22T13:18:34.287Z,8.70
2019-05-22T13:21:02.729Z,8.90
2019-05-22T13:23:37.839Z,8.53
2019-05-22T13:26:05.994Z,9.77
2019-05-22T13:28:35.566Z,9.57
2019-05-22T13:31:04.274Z,9.53
2019-05-22T13:33:33.779Z,9.03
2019-05-22T13:36:01.520Z,10.73
2019-05-22T13:38:29.773Z,9.03
2019-05-22T13:40:57.389Z,10.07
2019-05-22T13:43:27.032Z,9.87
2019-05-22T13:45:55.934Z,8.77
2019-05-22T13:48:24.649Z,9.57
2019-05-22T13:50:53.329Z,9.97
2019-05-22T13:53:22.239Z,9.33
2019-05-22T13:55:51.526Z,8.87
2019-05-22T13:58:20.911Z,8.60
2019-05-22T14:00:49.279Z,9.13
2019-05-22T14:03:17.955Z,10.33
2019-05-22T14:05:45.974Z,9.70
2019-05-22T14:08:13.607Z,9.60
2019-05-22T14:10:42.548Z,10.80
2019-05-22T14:13:10.525Z,11.17
2019-05-22T14:15:52.005Z,11.40
2019-05-22T14:18:08.005Z,11.53
2019-05-22T14:20:36.330Z,9.37
2019-05-22T14:23:05.709Z,10.80
2019-05-22T14:25:33.864Z,10.63
2019-05-22T14:28:01.953Z,11.03
2019-05-22T14:30:30.498Z,10.47
2019-05-22T14:33:03.566Z,10.97
2019-05-22T14:35:46.877Z,11.17
2019-05-22T14:38:00.592Z,11.13
2019-05-22T14:40:30.263Z,11.90
2019-05-22T14:42:57.916Z,12.07
2019-05-22T14:45:25.883Z,10.93
2019-05-22T14:47:53.641Z,11.30
2019-05-22T14:50:23.194Z,10.40
2019-05-22T14:52:51.554Z,11.20
2019-05-22T14:55:20.245Z,11.63
2019-05-22T14:57:48.544Z,10.90
2019-05-22T15:00:19.199Z,12.20
2019-05-22T15:02:53.458Z,11.00
2019-05-22T15:05:17.332Z,11.20
2019-05-22T15:07:46.061Z,10.47
2019-05-22T15:10:16.986Z,11.53
2019-05-22T15:12:46.741Z,12.70
2019-05-22T15:15:14.694Z,11.60
2019-05-22T15:17:42.599Z,12.60
2019-05-22T15:20:13.969Z,11.40
2019-05-22T15:22:42.069Z,12.33
2019-05-22T15:25:10.375Z,9.97
2019-05-22T15:27:38.325Z,12.10
2019-05-22T15:30:06.611Z,10.80
2019-05-22T15:32:34.366Z,11.37
2019-05-22T15:35:01.896Z,10.60
2019-05-22T15:37:30.496Z,11.40
2019-05-22T15:39:58.666Z,11.87
2019-05-22T15:42:37.257Z,11.87
2019-05-22T15:45:08.088Z,11.13
2019-05-22T15:47:53.372Z,11.20
2019-05-22T15:50:09.996Z,11.17
2019-05-22T15:52:39.163Z,11.60
2019-05-22T15:55:09.001Z,10.70
2019-05-22T15:57:38.898Z,11.57
2019-05-22T16:00:10.591Z,11.20
2019-05-22T16:02:40.995Z,11.50
2019-05-22T16:05:08.999Z,12.17
2019-05-22T16:07:38.569Z,11.77
2019-05-22T16:10:06.689Z,10.97
2019-05-22T16:12:34.611Z,11.67
2019-05-22T16:15:04.824Z,11.20
2019-05-22T16:17:32.809Z,11.20
2019-05-22T16:20:00.311Z,13.43
2019-05-22T16:22:27.976Z,10.17
2019-05-22T16:24:55.897Z,9.50
2019-05-22T16:27:24.418Z,9.80
2019-05-22T16:29:51.504Z,10.87
2019-05-22T16:32:21.286Z,11.20
2019-05-22T16:34:49.354Z,10.80
2019-05-22T16:37:17.439Z,10.40
2019-05-22T16:39:45.563Z,8.83
2019-05-22T16:42:14.066Z,11.77
2019-05-22T16:44:42.065Z,10.23
2019-05-22T16:47:10.570Z,10.40
2019-05-22T16:49:39.097Z,10.00
2019-05-22T16:52:08.645Z,10.53
2019-05-22T16:54:38.539Z,10.33
2019-05-22T16:57:08.262Z,10.38
2019-05-22T16:59:38.450Z,10.40
2019-05-22T17:02:08.324Z,11.80
2019-05-22T17:04:36.256Z,10.40
2019-05-22T17:07:04.682Z,10.13
2019-05-22T17:09:32.958Z,11.57
2019-05-22T17:12:04.579Z,11.50
2019-05-22T17:14:31.798Z,10.27
2019-05-22T17:16:59.756Z,9.37
2019-05-22T17:19:28.050Z,9.50
2019-05-22T17:21:59.069Z,9.83
2019-05-22T17:24:27.602Z,9.57
2019-05-22T17:26:56.334Z,9.43
2019-05-22T17:29:24.806Z,9.37
2019-05-22T17:31:53.510Z,7.87
2019-05-22T17:34:37.344Z,8.33
2019-05-22T17:37:18.819Z,7.93
2019-05-22T17:39:50.060Z,8.60
2019-05-22T17:42:21.003Z,8.73
2019-05-22T17:44:52.215Z,8.57
2019-05-22T17:47:21.468Z,9.77
2019-05-22T17:49:50.449Z,9.47
2019-05-22T17:52:20.570Z,9.63
2019-05-22T17:54:50.635Z,9.90
2019-05-22T17:57:18.796Z,9.77
2019-05-22T17:59:47.537Z,9.47
2019-05-22T18:02:17.486Z,9.57
2019-05-22T18:04:45.158Z,8.73
2019-05-22T18:07:13.464Z,9.27
2019-05-22T18:09:41.218Z,9.13
2019-05-22T18:12:08.637Z,10.07
2019-05-22T18:14:37.559Z,10.10
2019-05-22T18:17:07.074Z,9.30
2019-05-22T18:19:35.438Z,9.90
2019-05-22T18:22:03.780Z,9.93
2019-05-22T18:24:31.682Z,8.33
2019-05-22T18:26:59.637Z,9.80
2019-05-22T18:29:27.654Z,10.17
2019-05-22T18:31:56.066Z,10.00
2019-05-22T18:34:24.470Z,9.70
2019-05-22T18:36:52.633Z,10.00
2019-05-22T18:39:22.331Z,9.47
2019-05-22T18:41:50.561Z,9.73
2019-05-22T18:44:18.314Z,9.17
2019-05-22T18:46:46.045Z,9.90
2019-05-22T18:49:14.419Z,9.80
2019-05-22T18:51:43.350Z,9.73
2019-05-22T18:54:10.637Z,11.00
2019-05-22T18:56:38.829Z,9.23
2019-05-22T18:59:07.379Z,10.83
2019-05-22T19:01:35.409Z,10.10
2019-05-22T19:04:03.203Z,9.40
2019-05-22T19:06:31.769Z,9.00
2019-05-22T19:08:59.216Z,10.00
2019-05-22T19:11:28.718Z,10.57
2019-05-22T19:13:56.767Z,9.30
2019-05-22T19:16:24.658Z,8.93
2019-05-22T19:18:53.596Z,8.57
2019-05-22T19:21:22.735Z,9.70
2019-05-22T19:23:51.797Z,9.30
2019-05-22T19:26:20.593Z,8.90
2019-05-22T19:28:48.746Z,8.13
2019-05-22T19:31:18.448Z,9.80
2019-05-22T19:33:46.561Z,9.63
2019-05-22T19:36:15.166Z,8.77
2019-05-22T19:38:43.786Z,9.10
2019-05-22T19:41:12.470Z,8.43
2019-05-22T19:43:41.995Z,8.87
2019-05-22T19:46:10.506Z,8.70
2019-05-22T19:48:38.922Z,10.30
2019-05-22T19:51:07.155Z,10.37
2019-05-22T19:53:35.166Z,10.13
2019-05-22T19:56:04.552Z,9.60
2019-05-22T19:58:32.861Z,9.47
2019-05-22T20:01:01.460Z,9.23
2019-05-22T20:03:29.827Z,9.10
2019-05-22T20:05:59.966Z,9.73
2019-05-22T20:08:28.662Z,8.73
2019-05-22T20:10:57.560Z,9.00
2019-05-22T20:13:25.714Z,9.20
2019-05-22T20:15:54.850Z,9.73
2019-05-22T20:18:23.842Z,9.70
2019-05-22T20:20:51.457Z,9.50
2019-05-22T20:23:34.558Z,10.47
2019-05-22T20:25:49.900Z,11.87
2019-05-22T20:28:18.064Z,9.60
2019-05-22T20:30:46.796Z,10.70
2019-05-22T20:33:14.995Z,10.33
2019-05-22T20:35:43.089Z,9.90
2019-05-22T20:38:11.257Z,10.40
2019-05-22T20:40:39.507Z,9.13
2019-05-22T20:43:08.395Z,9.70
2019-05-22T20:45:36.193Z,9.40
2019-05-22T20:48:09.342Z,9.13
2019-05-22T20:50:37.128Z,9.57
2019-05-22T20:53:06.775Z,10.10
2019-05-22T20:55:34.429Z,9.20
2019-05-22T20:58:03.425Z,10.10
2019-05-22T21:00:32.132Z,9.10
2019-05-22T21:03:02.026Z,9.47
2019-05-22T21:05:31.344Z,9.37
2019-05-22T21:08:06.699Z,9.73
2019-05-22T21:10:37.011Z,9.50
2019-05-22T21:13:05.389Z,10.00
2019-05-22T21:15:33.578Z,9.77
2019-05-22T21:18:03.435Z,9.30
2019-05-22T21:20:33.549Z,9.63
2019-05-22T21:23:02.817Z,9.57
2019-05-22T21:25:31.801Z,9.33
2019-05-22T21:27:59.839Z,10.17
2019-05-22T21:30:29.797Z,8.80
2019-05-22T21:32:58.178Z,8.60
2019-05-22T21:35:25.674Z,8.90
2019-05-22T21:37:53.409Z,9.30
2019-05-22T21:40:22.995Z,8.50
2019-05-22T21:42:51.390Z,9.03
2019-05-22T21:45:19.486Z,7.70
2019-05-22T21:47:47.169Z,8.73
2019-05-22T21:50:15.245Z,10.80
2019-05-22T21:52:43.148Z,11.77
2019-05-22T21:55:11.743Z,9.50
2019-05-22T21:57:39.738Z,10.53
2019-05-22T22:00:09.773Z,9.47
2019-05-22T22:02:44.403Z,10.23
2019-05-22T22:05:11.890Z,9.43
2019-05-22T22:07:40.622Z,8.50
2019-05-22T22:10:09.479Z,9.60
2019-05-22T22:12:36.687Z,8.90
2019-05-22T22:15:04.081Z,10.33
2019-05-22T22:17:35.659Z,9.97
2019-05-22T22:20:03.274Z,11.20
2019-05-22T22:22:31.118Z,9.87
2019-05-22T22:24:58.765Z,9.70
2019-05-22T22:27:26.902Z,8.73
2019-05-22T22:29:55.254Z,8.30
2019-05-22T22:32:24.990Z,9.50
2019-05-22T22:34:53.159Z,8.83
2019-05-22T22:37:22.361Z,8.40
2019-05-22T22:39:54.349Z,8.60
2019-05-22T22:42:26.369Z,7.70
2019-05-22T22:44:55.262Z,7.30
2019-05-22T22:47:28.139Z,7.60
2019-05-22T22:49:57.477Z,7.93
2019-05-22T22:52:27.078Z,8.73
2019-05-22T22:54:54.608Z,8.53
2019-05-22T22:57:21.753Z,9.70
2019-05-22T22:59:49.356Z,9.50
2019-05-22T23:02:18.921Z,9.70
2019-05-22T23:04:47.944Z,9.33
2019-05-22T23:07:16.618Z,9.30
2019-05-22T23:09:44.115Z,9.20
2019-05-22T23:12:13.199Z,8.60
2019-05-22T23:14:46.387Z,8.77
2019-05-22T23:17:13.461Z,8.30
2019-05-22T23:19:46.546Z,8.70
2019-05-22T23:22:17.437Z,7.97
2019-05-22T23:24:45.345Z,8.57
2019-05-22T23:27:13.066Z,8.57
2019-05-22T23:29:41.577Z,8.80
2019-05-22T23:32:10.928Z,8.37
2019-05-22T23:34:38.111Z,9.47
2019-05-22T23:37:07.134Z,9.27
2019-05-22T23:39:35.429Z,8.40
2019-05-22T23:42:09.357Z,8.63
2019-05-22T23:44:37.916Z,7.43
2019-05-22T23:47:07.265Z,7.60
2019-05-22T23:49:35.174Z,8.40
2019-05-22T23:52:04.655Z,7.27
2019-05-22T23:54:32.299Z,8.27
2019-05-22T23:57:01.086Z,8.47
2019-05-22T23:59:31.585Z,7.90
